Time;durP1;ratioP1;P1;durP2;ratioP2;P2;SDS_P1;SDS_P2;PMS_P1;PMS_P2;Temp;Humidity;BMP_temperature;BMP_pressure;BME280_temperature;BME280_humidity;BME280_pressure;Samples;Min_cycle;Max_cycle;Signal;HPM_P1;HPM_P2
2023/11/14 00:01:12;;;;;;;0.30;0.20;;;;;;;;;;5075133;28;20029;-60
2023/11/14 00:03:39;;;;;;;13.57;0.30;;;;;;;;;;5075031;28;20025;-60
2023/11/14 00:06:06;;;;;;;0.20;0.20;;;;;;;;;;5074337;28;20025;-60
2023/11/14 00:08:33;;;;;;;0.63;0.20;;;;;;;;;;5074668;28;20029;-60
2023/11/14 00:11:01;;;;;;;0.10;0.10;;;;;;;;;;5073291;28;20025;-61
2023/11/14 00:13:28;;;;;;;0.17;0.13;;;;;;;;;;5069160;28;20039;-60
2023/11/14 00:15:55;;;;;;;0.60;0.30;;;;;;;;;;5069491;28;20036;-60
2023/11/14 00:18:21;;;;;;;0.53;0.30;;;;;;;;;;5067508;28;20446;-60
2023/11/14 00:20:49;;;;;;;0.07;0.07;;;;;;;;;;5069906;28;20024;-60
2023/11/14 00:23:18;;;;;;;4.30;0.40;;;;;;;;;;5073940;28;20058;-60
2023/11/14 00:25:45;;;;;;;1.10;0.63;;;;;;;;;;5074613;28;20421;-60
2023/11/14 00:28:12;;;;;;;0.27;0.20;;;;;;;;;;5074317;28;20032;-60
2023/11/14 00:30:39;;;;;;;0.37;0.30;;;;;;;;;;5074645;28;20052;-60
2023/11/14 00:33:06;;;;;;;0.60;0.37;;;;;;;;;;5073576;28;20390;-60
2023/11/14 00:35:32;;;;;;;0.03;0.00;;;;;;;;;;5069076;28;20035;-60
2023/11/14 00:37:59;;;;;;;0.27;0.20;;;;;;;;;;5068759;28;20032;-60
2023/11/14 00:40:26;;;;;;;0.83;0.30;;;;;;;;;;5068680;28;20025;-60
2023/11/14 00:42:52;;;;;;;1.33;0.30;;;;;;;;;;5068331;28;20041;-60
2023/11/14 00:45:19;;;;;;;0.13;0.10;;;;;;;;;;5074417;28;20047;-60
2023/11/14 00:47:45;;;;;;;0.20;0.20;;;;;;;;;;5074197;28;20498;-60
2023/11/14 00:50:13;;;;;;;1.23;0.30;;;;;;;;;;5073948;28;21265;-60
2023/11/14 00:52:39;;;;;;;0.20;0.10;;;;;;;;;;5073841;28;20471;-60
2023/11/14 00:55:06;;;;;;;0.43;0.30;;;;;;;;;;5074097;28;20471;-60
2023/11/14 00:57:33;;;;;;;1.17;0.30;;;;;;;;;;5068207;28;20100;-61
2023/11/14 01:00:00;;;;;;;0.27;0.13;;;;;;;;;;5068563;28;20354;-61
2023/11/14 01:02:27;;;;;;;0.23;0.10;;;;;;;;;;5068495;28;20429;-60
2023/11/14 01:04:53;;;;;;;0.83;0.30;;;;;;;;;;5068482;28;20131;-60
2023/11/14 01:07:20;;;;;;;0.10;0.10;;;;;;;;;;5072460;28;20028;-60
2023/11/14 01:09:48;;;;;;;0.70;0.40;;;;;;;;;;5073817;28;20028;-60
2023/11/14 01:12:14;;;;;;;0.00;0.00;;;;;;;;;;5073479;28;20162;-60
2023/11/14 01:14:41;;;;;;;0.60;0.33;;;;;;;;;;5073469;28;20487;-60
2023/11/14 01:17:08;;;;;;;0.17;0.13;;;;;;;;;;5073191;28;20102;-60
2023/11/14 01:19:39;;;;;;;0.93;0.33;;;;;;;;;;5069017;28;20453;-60
2023/11/14 01:22:06;;;;;;;0.17;0.13;;;;;;;;;;5068127;28;20505;-60
2023/11/14 01:24:34;;;;;;;0.20;0.10;;;;;;;;;;5068183;28;20434;-60
2023/11/14 01:27:03;;;;;;;0.10;0.10;;;;;;;;;;5067472;28;20392;-60
2023/11/14 01:29:29;;;;;;;0.00;0.00;;;;;;;;;;5071761;28;20033;-60
2023/11/14 01:31:56;;;;;;;0.27;0.17;;;;;;;;;;5072757;28;20027;-60
2023/11/14 01:34:25;;;;;;;0.67;0.20;;;;;;;;;;5072984;28;20035;-60
2023/11/14 01:36:56;;;;;;;0.20;0.10;;;;;;;;;;5073107;28;20032;-60
2023/11/14 01:39:25;;;;;;;0.10;0.10;;;;;;;;;;5072371;28;20033;-60
2023/11/14 01:41:53;;;;;;;0.30;0.20;;;;;;;;;;5068965;28;20510;-60
2023/11/14 01:44:19;;;;;;;0.13;0.10;;;;;;;;;;5067474;28;20123;-60
2023/11/14 01:46:46;;;;;;;0.10;0.10;;;;;;;;;;5067717;28;20084;-60
2023/11/14 01:49:13;;;;;;;0.00;0.00;;;;;;;;;;5067617;28;20036;-60
2023/11/14 01:51:42;;;;;;;0.30;0.30;;;;;;;;;;5070080;28;20020;-60
2023/11/14 01:54:09;;;;;;;0.13;0.07;;;;;;;;;;5072542;28;20024;-60
2023/11/14 01:56:36;;;;;;;0.07;0.07;;;;;;;;;;5070557;28;20095;-60
2023/11/14 01:59:03;;;;;;;0.17;0.10;;;;;;;;;;5063385;28;20029;-60
2023/11/14 02:01:29;;;;;;;0.07;0.07;;;;;;;;;;5052719;28;20033;-60
2023/11/14 02:03:57;;;;;;;0.00;0.00;;;;;;;;;;5061840;28;20104;-60
2023/11/14 02:06:24;;;;;;;0.10;0.10;;;;;;;;;;5058966;28;20056;-60
2023/11/14 02:08:51;;;;;;;2.00;0.40;;;;;;;;;;5067345;28;20463;-60
2023/11/14 02:11:17;;;;;;;0.00;0.00;;;;;;;;;;5065095;28;20066;-60
2023/11/14 02:13:45;;;;;;;0.00;0.00;;;;;;;;;;5057736;28;20044;-60
2023/11/14 02:16:12;;;;;;;0.10;0.10;;;;;;;;;;5061685;28;20035;-60
2023/11/14 02:18:39;;;;;;;0.10;0.10;;;;;;;;;;5069956;28;20025;-61
2023/11/14 02:21:05;;;;;;;0.00;0.00;;;;;;;;;;5070478;28;20123;-60
2023/11/14 02:23:37;;;;;;;0.17;0.10;;;;;;;;;;5050032;28;20067;-59
2023/11/14 02:26:05;;;;;;;0.07;0.07;;;;;;;;;;5064450;28;20028;-60
2023/11/14 02:28:31;;;;;;;0.20;0.17;;;;;;;;;;5067356;28;20025;-60
2023/11/14 02:30:58;;;;;;;0.10;0.10;;;;;;;;;;5065753;28;20032;-60
2023/11/14 02:33:26;;;;;;;0.33;0.33;;;;;;;;;;5048478;28;20036;-60
2023/11/14 02:35:53;;;;;;;0.70;0.27;;;;;;;;;;5048781;28;20092;-60
2023/11/14 02:38:19;;;;;;;0.40;0.27;;;;;;;;;;5053200;28;20117;-60
2023/11/14 02:40:55;;;;;;;0.63;0.37;;;;;;;;;;5051902;28;20041;-60
2023/11/14 02:43:22;;;;;;;0.20;0.10;;;;;;;;;;5051980;28;20082;-60
2023/11/14 02:45:49;;;;;;;0.20;0.10;;;;;;;;;;5054763;28;20056;-60
2023/11/14 02:48:16;;;;;;;0.20;0.10;;;;;;;;;;5070202;28;20016;-60
2023/11/14 02:50:42;;;;;;;0.00;0.00;;;;;;;;;;5066861;28;20067;-60
2023/11/14 02:53:09;;;;;;;0.30;0.23;;;;;;;;;;5066369;28;20378;-60
2023/11/14 02:55:35;;;;;;;0.10;0.10;;;;;;;;;;5065449;28;20078;-60
2023/11/14 02:58:02;;;;;;;0.30;0.20;;;;;;;;;;5067677;28;20544;-60
2023/11/14 03:00:29;;;;;;;0.27;0.20;;;;;;;;;;5071200;28;20389;-60
2023/11/14 03:02:56;;;;;;;0.00;0.00;;;;;;;;;;5071801;28;20108;-60
2023/11/14 03:05:23;;;;;;;0.20;0.10;;;;;;;;;;5064438;28;20029;-61
2023/11/14 03:07:49;;;;;;;0.20;0.17;;;;;;;;;;5065437;28;20419;-60
2023/11/14 03:10:16;;;;;;;4.77;0.90;;;;;;;;;;5070990;28;20422;-60
2023/11/14 03:12:43;;;;;;;5.27;1.73;;;;;;;;;;5066642;28;20546;-60
2023/11/14 03:15:10;;;;;;;1.10;0.50;;;;;;;;;;5066340;28;20483;-60
2023/11/14 03:17:36;;;;;;;1.73;1.00;;;;;;;;;;5066472;28;20146;-60
2023/11/14 03:20:03;;;;;;;1.90;0.83;;;;;;;;;;5065994;28;20029;-58
2023/11/14 03:22:30;;;;;;;1.80;1.07;;;;;;;;;;5071610;28;20052;-57
2023/11/14 03:24:56;;;;;;;0.63;0.40;;;;;;;;;;5071733;28;20515;-58
2023/11/14 03:27:23;;;;;;;0.20;0.10;;;;;;;;;;5071489;28;20479;-58
2023/11/14 03:29:50;;;;;;;0.53;0.20;;;;;;;;;;5071657;28;20020;-58
2023/11/14 03:32:17;;;;;;;2.30;1.40;;;;;;;;;;5071457;28;20036;-57
2023/11/14 03:34:43;;;;;;;1.97;0.97;;;;;;;;;;5066446;28;20032;-58
2023/11/14 03:37:10;;;;;;;1.53;0.80;;;;;;;;;;5065975;28;20471;-57
2023/11/14 03:39:36;;;;;;;0.40;0.40;;;;;;;;;;5066312;28;20039;-58
2023/11/14 03:42:03;;;;;;;1.57;0.53;;;;;;;;;;5066335;28;20032;-58
2023/11/14 03:44:30;;;;;;;0.50;0.50;;;;;;;;;;5070112;28;20490;-57
2023/11/14 03:46:56;;;;;;;0.67;0.37;;;;;;;;;;5068043;28;20020;-57
2023/11/14 03:49:23;;;;;;;0.93;0.50;;;;;;;;;;5070538;28;20017;-57
2023/11/14 03:51:49;;;;;;;1.37;0.40;;;;;;;;;;5070680;28;20395;-56
2023/11/14 03:54:16;;;;;;;0.37;0.30;;;;;;;;;;5070649;28;20017;-57
2023/11/14 03:56:42;;;;;;;0.50;0.40;;;;;;;;;;5065371;28;20479;-58
2023/11/14 03:59:15;;;;;;;0.40;0.30;;;;;;;;;;5065750;28;20017;-59
2023/11/14 04:01:48;;;;;;;1.03;0.70;;;;;;;;;;5066039;28;20068;-58
2023/11/14 04:04:25;;;;;;;0.60;0.40;;;;;;;;;;5069030;28;20020;-58
2023/11/14 04:06:56;;;;;;;1.03;0.53;;;;;;;;;;5072969;28;20498;-58
2023/11/14 04:09:30;;;;;;;0.50;0.40;;;;;;;;;;5074199;28;20025;-58
2023/11/14 04:12:07;;;;;;;0.33;0.30;;;;;;;;;;5075029;28;20017;-58
2023/11/14 04:14:41;;;;;;;0.70;0.23;;;;;;;;;;5074989;28;20020;-58
2023/11/14 04:17:18;;;;;;;2.20;0.60;;;;;;;;;;5073142;28;20035;-58
2023/11/14 04:19:55;;;;;;;1.70;0.83;;;;;;;;;;5069088;28;20028;-58
2023/11/14 04:22:33;;;;;;;0.73;0.40;;;;;;;;;;5068156;28;20051;-58
2023/11/14 04:25:04;;;;;;;1.60;0.53;;;;;;;;;;5069614;28;20074;-58
2023/11/14 04:27:37;;;;;;;0.83;0.70;;;;;;;;;;5069666;28;20115;-58
2023/11/14 04:30:10;;;;;;;0.80;0.37;;;;;;;;;;5074326;28;20150;-58
2023/11/14 04:32:43;;;;;;;1.90;0.63;;;;;;;;;;5072435;28;20036;-58
2023/11/14 04:35:16;;;;;;;1.07;0.70;;;;;;;;;;5055369;28;20064;-58
2023/11/14 04:37:44;;;;;;;2.43;0.57;;;;;;;;;;5054247;28;20021;-58
2023/11/14 04:40:11;;;;;;;2.23;0.83;;;;;;;;;;5061150;28;20040;-58
2023/11/14 04:42:37;;;;;;;2.63;1.00;;;;;;;;;;5062934;28;20032;-58
2023/11/14 04:45:05;;;;;;;0.10;0.10;;;;;;;;;;5059782;28;20163;-58
2023/11/14 04:47:32;;;;;;;0.73;0.47;;;;;;;;;;5059183;28;20028;-59
2023/11/14 04:49:58;;;;;;;0.63;0.33;;;;;;;;;;5069856;28;20027;-58
2023/11/14 04:52:25;;;;;;;0.47;0.40;;;;;;;;;;5074174;28;20028;-58
2023/11/14 04:54:51;;;;;;;1.33;0.77;;;;;;;;;;5060819;28;20033;-58
2023/11/14 04:57:18;;;;;;;2.00;0.80;;;;;;;;;;5053936;28;20025;-58
2023/11/14 04:59:45;;;;;;;2.07;0.70;;;;;;;;;;5054193;28;20496;-58
2023/11/14 05:02:12;;;;;;;0.30;0.27;;;;;;;;;;5070973;28;20041;-58
2023/11/14 05:04:39;;;;;;;0.97;0.40;;;;;;;;;;5069159;28;20024;-59
2023/11/14 05:07:05;;;;;;;0.83;0.63;;;;;;;;;;5067291;28;20020;-58
2023/11/14 05:09:34;;;;;;;1.00;0.83;;;;;;;;;;5049094;28;20032;-58
2023/11/14 05:12:01;;;;;;;1.17;0.70;;;;;;;;;;5048957;28;20476;-59
2023/11/14 05:14:27;;;;;;;0.40;0.40;;;;;;;;;;5052389;28;20523;-58
2023/11/14 05:16:56;;;;;;;2.17;0.87;;;;;;;;;;5053707;28;20476;-59
2023/11/14 05:19:27;;;;;;;0.33;0.30;;;;;;;;;;5070679;28;20099;-58
2023/11/14 05:21:54;;;;;;;1.17;0.87;;;;;;;;;;5053475;28;20037;-58
2023/11/14 05:24:20;;;;;;;1.03;0.47;;;;;;;;;;5053699;28;20029;-58
2023/11/14 05:26:48;;;;;;;0.50;0.47;;;;;;;;;;5048640;28;20381;-58
2023/11/14 05:29:15;;;;;;;0.97;0.53;;;;;;;;;;5054319;28;20028;-58
2023/11/14 05:31:42;;;;;;;0.63;0.40;;;;;;;;;;5068018;28;20043;-58
2023/11/14 05:34:09;;;;;;;0.20;0.20;;;;;;;;;;5067756;28;20032;-58
2023/11/14 05:36:36;;;;;;;1.07;0.70;;;;;;;;;;5068690;28;20027;-58
2023/11/14 05:39:04;;;;;;;0.50;0.40;;;;;;;;;;5071146;28;20098;-58
2023/11/14 05:41:31;;;;;;;0.40;0.30;;;;;;;;;;5071787;28;20041;-58
2023/11/14 05:44:00;;;;;;;1.27;0.53;;;;;;;;;;5071883;28;20164;-59
2023/11/14 05:46:26;;;;;;;0.80;0.60;;;;;;;;;;5072098;28;20035;-58
2023/11/14 05:48:53;;;;;;;0.53;0.27;;;;;;;;;;5067648;28;20017;-58
2023/11/14 05:51:20;;;;;;;0.90;0.63;;;;;;;;;;5066720;28;20037;-58
2023/11/14 05:53:47;;;;;;;0.80;0.70;;;;;;;;;;5066497;28;20120;-58
2023/11/14 05:56:14;;;;;;;1.33;0.77;;;;;;;;;;5066747;28;20103;-58
2023/11/14 05:58:41;;;;;;;0.83;0.60;;;;;;;;;;5070087;28;20041;-58
2023/11/14 06:01:10;;;;;;;3.87;0.87;;;;;;;;;;5070908;28;20033;-58
2023/11/14 06:03:37;;;;;;;1.50;0.60;;;;;;;;;;5071377;28;20028;-58
2023/11/14 06:06:04;;;;;;;4.53;1.03;;;;;;;;;;5070955;28;20534;-58
2023/11/14 06:08:31;;;;;;;2.60;0.80;;;;;;;;;;5071620;28;20108;-58
2023/11/14 06:10:58;;;;;;;1.13;0.43;;;;;;;;;;5067512;28;20310;-58
2023/11/14 06:13:24;;;;;;;5.67;1.00;;;;;;;;;;5066157;28;20024;-58
2023/11/14 06:15:52;;;;;;;0.50;0.30;;;;;;;;;;5066186;28;20081;-58
2023/11/14 06:18:18;;;;;;;0.60;0.50;;;;;;;;;;5066525;28;20029;-58
2023/11/14 06:20:45;;;;;;;1.47;0.63;;;;;;;;;;5067952;28;20024;-58
2023/11/14 06:23:12;;;;;;;1.93;0.73;;;;;;;;;;5071180;28;20035;-58
2023/11/14 06:25:38;;;;;;;0.60;0.33;;;;;;;;;;5071184;28;20025;-58
2023/11/14 06:28:05;;;;;;;1.40;0.70;;;;;;;;;;5071646;28;20475;-58
2023/11/14 06:30:34;;;;;;;7.43;1.10;;;;;;;;;;5070296;28;20491;-58
2023/11/14 06:33:01;;;;;;;0.93;0.43;;;;;;;;;;5068506;28;20047;-58
2023/11/14 06:35:28;;;;;;;2.73;0.90;;;;;;;;;;5065800;28;20086;-58
2023/11/14 06:37:55;;;;;;;1.77;0.80;;;;;;;;;;5065844;28;20020;-58
2023/11/14 06:40:22;;;;;;;0.67;0.50;;;;;;;;;;5065712;28;20115;-58
2023/11/14 06:42:49;;;;;;;0.63;0.50;;;;;;;;;;5068058;28;20512;-58
2023/11/14 06:45:17;;;;;;;1.07;0.60;;;;;;;;;;5070638;28;20353;-58
2023/11/14 06:47:44;;;;;;;2.73;0.90;;;;;;;;;;5055502;28;20495;-58
2023/11/14 06:50:10;;;;;;;0.63;0.60;;;;;;;;;;5070808;28;20406;-58
2023/11/14 06:52:37;;;;;;;0.93;0.67;;;;;;;;;;5061041;28;20035;-58
2023/11/14 06:55:04;;;;;;;1.17;0.67;;;;;;;;;;5050080;28;20025;-59
2023/11/14 06:57:35;;;;;;;1.63;0.60;;;;;;;;;;5065503;28;20434;-58
2023/11/14 07:00:05;;;;;;;1.27;0.70;;;;;;;;;;5065890;28;20274;-58
2023/11/14 07:02:32;;;;;;;0.37;0.37;;;;;;;;;;5065904;28;20877;-58
2023/11/14 07:04:59;;;;;;;0.57;0.40;;;;;;;;;;5066025;28;20035;-58
2023/11/14 07:07:26;;;;;;;0.63;0.50;;;;;;;;;;5061553;28;20029;-58
2023/11/14 07:09:52;;;;;;;1.33;0.93;;;;;;;;;;5050700;28;20033;-58
2023/11/14 07:12:19;;;;;;;2.57;0.80;;;;;;;;;;5050662;28;20031;-58
2023/11/14 07:14:46;;;;;;;1.17;0.77;;;;;;;;;;5050440;28;20053;-58
2023/11/14 07:17:13;;;;;;;0.50;0.40;;;;;;;;;;5050921;28;20460;-58
2023/11/14 07:19:42;;;;;;;2.53;0.77;;;;;;;;;;5050099;28;20068;-58
2023/11/14 07:22:12;;;;;;;0.10;0.10;;;;;;;;;;5052985;28;20040;-57
2023/11/14 07:24:41;;;;;;;0.40;0.33;;;;;;;;;;5066359;28;20024;-58
2023/11/14 07:27:09;;;;;;;1.57;0.53;;;;;;;;;;5065602;28;20032;-58
2023/11/14 07:29:38;;;;;;;0.60;0.37;;;;;;;;;;5071561;28;20112;-58
2023/11/14 07:32:11;;;;;;;1.57;0.80;;;;;;;;;;5066352;28;20028;-58
2023/11/14 07:34:38;;;;;;;1.73;1.00;;;;;;;;;;5051455;28;20738;-58
2023/11/14 07:37:05;;;;;;;0.87;0.40;;;;;;;;;;5051645;28;20017;-58
2023/11/14 07:39:32;;;;;;;1.33;0.60;;;;;;;;;;5054686;28;20124;-58
2023/11/14 07:41:58;;;;;;;0.47;0.40;;;;;;;;;;5050544;28;20035;-58
2023/11/14 07:44:29;;;;;;;0.63;0.40;;;;;;;;;;5050382;28;20090;-58
2023/11/14 07:46:56;;;;;;;3.90;0.60;;;;;;;;;;5056615;28;20071;-58
2023/11/14 07:49:22;;;;;;;0.93;0.70;;;;;;;;;;5070323;28;20026;-58
2023/11/14 07:51:52;;;;;;;11.93;0.83;;;;;;;;;;5075328;28;20029;-58
2023/11/14 07:54:20;;;;;;;0.40;0.30;;;;;;;;;;5075216;28;20028;-58
2023/11/14 07:56:47;;;;;;;0.40;0.40;;;;;;;;;;5070002;28;20447;-58
2023/11/14 07:59:14;;;;;;;0.83;0.50;;;;;;;;;;5055431;28;20380;-58
2023/11/14 08:01:41;;;;;;;0.40;0.20;;;;;;;;;;5054883;28;20021;-57
2023/11/14 08:04:10;;;;;;;1.30;0.53;;;;;;;;;;5050228;28;20021;-58
2023/11/14 08:06:38;;;;;;;8.33;0.53;;;;;;;;;;5050135;28;20078;-58
2023/11/14 08:09:05;;;;;;;0.23;0.20;;;;;;;;;;5057632;28;20521;-59
2023/11/14 08:11:32;;;;;;;1.90;0.50;;;;;;;;;;5068741;28;20024;-58
2023/11/14 08:13:58;;;;;;;0.47;0.27;;;;;;;;;;5074756;28;20024;-57
2023/11/14 08:16:25;;;;;;;0.87;0.50;;;;;;;;;;5075051;28;20028;-58
2023/11/14 08:18:52;;;;;;;2.20;0.73;;;;;;;;;;5075099;28;20016;-58
2023/11/14 08:21:18;;;;;;;0.83;0.40;;;;;;;;;;5067093;28;20025;-58
2023/11/14 08:23:45;;;;;;;2.70;0.67;;;;;;;;;;5054822;28;20483;-57
2023/11/14 08:26:12;;;;;;;1.07;0.37;;;;;;;;;;5049653;28;20056;-58
2023/11/14 08:28:39;;;;;;;1.00;0.43;;;;;;;;;;5049819;28;20021;-58
2023/11/14 08:31:06;;;;;;;0.40;0.23;;;;;;;;;;5049219;28;20482;-58
2023/11/14 08:33:33;;;;;;;0.40;0.33;;;;;;;;;;5056495;28;20048;-58
2023/11/14 08:36:00;;;;;;;0.60;0.40;;;;;;;;;;5073319;28;20107;-58
2023/11/14 08:38:27;;;;;;;1.40;0.57;;;;;;;;;;5070700;28;20120;-58
2023/11/14 08:40:56;;;;;;;0.30;0.10;;;;;;;;;;5062235;28;20032;-58
2023/11/14 08:43:23;;;;;;;3.70;0.43;;;;;;;;;;5074131;28;20039;-58
2023/11/14 08:45:49;;;;;;;0.33;0.30;;;;;;;;;;5074508;28;20025;-57
2023/11/14 08:48:16;;;;;;;1.27;0.67;;;;;;;;;;5068614;28;20107;-58
2023/11/14 08:50:43;;;;;;;0.10;0.10;;;;;;;;;;5049201;28;20055;-58
2023/11/14 08:53:10;;;;;;;1.40;0.43;;;;;;;;;;5049698;28;20029;-58
2023/11/14 08:55:36;;;;;;;0.20;0.20;;;;;;;;;;5069096;28;20033;-57
2023/11/14 08:58:03;;;;;;;0.00;0.00;;;;;;;;;;5072344;28;20017;-58
2023/11/14 09:00:30;;;;;;;0.80;0.40;;;;;;;;;;5074033;28;20352;-58
2023/11/14 09:02:58;;;;;;;0.23;0.20;;;;;;;;;;5056601;28;20029;-58
2023/11/14 09:05:29;;;;;;;0.50;0.30;;;;;;;;;;5053513;28;20114;-58
2023/11/14 09:07:56;;;;;;;0.53;0.40;;;;;;;;;;5064227;28;20558;-58
2023/11/14 09:10:23;;;;;;;0.60;0.30;;;;;;;;;;5070597;28;20077;-58
2023/11/14 09:12:51;;;;;;;0.70;0.43;;;;;;;;;;5068478;28;20047;-57
2023/11/14 09:15:18;;;;;;;0.13;0.10;;;;;;;;;;5068564;28;20024;-58
2023/11/14 09:17:44;;;;;;;0.30;0.20;;;;;;;;;;5068731;28;20017;-57
2023/11/14 09:20:11;;;;;;;0.10;0.07;;;;;;;;;;5071271;28;20364;-58
2023/11/14 09:22:38;;;;;;;0.57;0.40;;;;;;;;;;5073439;28;20077;-58
2023/11/14 09:25:07;;;;;;;0.20;0.17;;;;;;;;;;5073461;28;20028;-57
2023/11/14 09:27:34;;;;;;;0.40;0.30;;;;;;;;;;5073357;28;20039;-58
2023/11/14 09:30:00;;;;;;;0.37;0.27;;;;;;;;;;5073497;28;20499;-58
2023/11/14 09:32:28;;;;;;;0.73;0.50;;;;;;;;;;5070621;28;20116;-57
2023/11/14 09:34:54;;;;;;;0.73;0.37;;;;;;;;;;5067910;28;20021;-58
2023/11/14 09:37:21;;;;;;;0.37;0.30;;;;;;;;;;5067771;28;20047;-56
2023/11/14 09:39:49;;;;;;;0.20;0.20;;;;;;;;;;5067663;28;20025;-55
2023/11/14 09:42:16;;;;;;;0.20;0.20;;;;;;;;;;5070353;28;20051;-55
2023/11/14 09:44:43;;;;;;;4.00;0.60;;;;;;;;;;5073178;28;20372;-55
2023/11/14 09:47:10;;;;;;;0.20;0.10;;;;;;;;;;5072803;28;20021;-55
2023/11/14 09:49:42;;;;;;;1.43;0.60;;;;;;;;;;5072853;28;20056;-55
2023/11/14 09:52:10;;;;;;;0.30;0.30;;;;;;;;;;5073158;28;20355;-56
2023/11/14 09:54:37;;;;;;;0.20;0.20;;;;;;;;;;5070035;28;20044;-56
2023/11/14 09:57:04;;;;;;;0.87;0.60;;;;;;;;;;5067872;28;20086;-56
2023/11/14 09:59:33;;;;;;;0.10;0.00;;;;;;;;;;5067738;28;20040;-56
2023/11/14 10:01:59;;;;;;;2.20;0.73;;;;;;;;;;5067130;28;20072;-55
2023/11/14 10:04:27;;;;;;;1.20;0.53;;;;;;;;;;5069469;28;20021;-55
2023/11/14 10:06:53;;;;;;;0.67;0.43;;;;;;;;;;5072221;28;20479;-55
2023/11/14 10:09:21;;;;;;;1.00;0.70;;;;;;;;;;5072868;28;20024;-55
2023/11/14 10:11:48;;;;;;;1.13;0.40;;;;;;;;;;5072489;28;20496;-56
2023/11/14 10:14:16;;;;;;;0.50;0.30;;;;;;;;;;5072444;28;20032;-55
2023/11/14 10:16:42;;;;;;;0.60;0.47;;;;;;;;;;5070439;28;20028;-55
2023/11/14 10:19:16;;;;;;;1.10;0.40;;;;;;;;;;5067543;28;20024;-56
2023/11/14 10:21:44;;;;;;;1.53;0.67;;;;;;;;;;5066884;28;20048;-57
2023/11/14 10:24:14;;;;;;;1.27;0.57;;;;;;;;;;5066988;28;20040;-58
2023/11/14 10:26:52;;;;;;;0.50;0.23;;;;;;;;;;5068664;28;20020;-57
2023/11/14 10:29:20;;;;;;;0.40;0.40;;;;;;;;;;5072454;28;20040;-57
2023/11/14 10:31:46;;;;;;;1.43;0.57;;;;;;;;;;5071793;28;20032;-58
2023/11/14 10:34:29;;;;;;;0.40;0.30;;;;;;;;;;5071296;28;20357;-57
2023/11/14 10:36:57;;;;;;;0.67;0.40;;;;;;;;;;5071779;28;20467;-58
2023/11/14 10:39:23;;;;;;;1.20;0.83;;;;;;;;;;5069519;28;20032;-57
2023/11/14 10:41:52;;;;;;;3.50;1.13;;;;;;;;;;5066748;28;20047;-57
2023/11/14 10:44:19;;;;;;;1.23;0.93;;;;;;;;;;5067148;28;20040;-58
2023/11/14 10:46:49;;;;;;;2.03;0.50;;;;;;;;;;5067171;28;20028;-57
2023/11/14 10:49:15;;;;;;;1.63;0.80;;;;;;;;;;5068937;28;20028;-57
2023/11/14 10:51:43;;;;;;;0.60;0.30;;;;;;;;;;5072345;28;20371;-57
2023/11/14 10:54:09;;;;;;;0.50;0.30;;;;;;;;;;5071478;28;20021;-58
2023/11/14 10:56:37;;;;;;;0.40;0.40;;;;;;;;;;5072238;28;20048;-57
2023/11/14 10:59:12;;;;;;;0.57;0.40;;;;;;;;;;5071752;28;20033;-58
2023/11/14 11:01:44;;;;;;;0.40;0.30;;;;;;;;;;5069525;28;20059;-57
2023/11/14 11:04:13;;;;;;;1.03;0.53;;;;;;;;;;5066979;28;20029;-57
2023/11/14 11:06:40;;;;;;;0.27;0.27;;;;;;;;;;5066306;28;20024;-58
2023/11/14 11:09:10;;;;;;;1.83;0.50;;;;;;;;;;5066332;28;20037;-57
2023/11/14 11:11:51;;;;;;;0.53;0.27;;;;;;;;;;5068387;28;20460;-57
2023/11/14 11:14:19;;;;;;;4.13;0.40;;;;;;;;;;5075378;28;20025;-57
2023/11/14 11:16:49;;;;;;;0.20;0.20;;;;;;;;;;5075942;28;20360;-57
2023/11/14 11:19:23;;;;;;;0.10;0.10;;;;;;;;;;5075515;28;20028;-57
2023/11/14 11:22:00;;;;;;;0.10;0.10;;;;;;;;;;5075436;28;20044;-56
2023/11/14 11:24:28;;;;;;;0.73;0.53;;;;;;;;;;5072567;28;20394;-56
2023/11/14 11:27:06;;;;;;;0.20;0.20;;;;;;;;;;5070747;28;20426;-55
2023/11/14 11:29:52;;;;;;;0.43;0.33;;;;;;;;;;5070348;28;20047;-56
2023/11/14 11:32:26;;;;;;;0.30;0.30;;;;;;;;;;5070242;28;20043;-55
2023/11/14 11:35:11;;;;;;;3.27;0.57;;;;;;;;;;5074353;28;20028;-56
2023/11/14 11:37:44;;;;;;;0.73;0.40;;;;;;;;;;5075770;28;20024;-55
2023/11/14 11:40:12;;;;;;;0.60;0.40;;;;;;;;;;5075686;28;20115;-56
2023/11/14 11:42:39;;;;;;;0.63;0.20;;;;;;;;;;5075573;28;20033;-55
2023/11/14 11:45:07;;;;;;;0.37;0.20;;;;;;;;;;5075314;28;20023;-55
2023/11/14 11:47:34;;;;;;;0.20;0.20;;;;;;;;;;5070571;28;20052;-55
2023/11/14 11:50:21;;;;;;;0.37;0.30;;;;;;;;;;5069764;28;20050;-55
2023/11/14 11:53:08;;;;;;;0.30;0.23;;;;;;;;;;5070247;28;20028;-55
2023/11/14 11:55:37;;;;;;;0.40;0.20;;;;;;;;;;5050477;28;20543;-55
2023/11/14 11:58:05;;;;;;;0.30;0.30;;;;;;;;;;5054880;28;20496;-55
2023/11/14 12:00:32;;;;;;;3.00;1.07;;;;;;;;;;5055088;28;20488;-55
2023/11/14 12:03:02;;;;;;;0.30;0.20;;;;;;;;;;5055303;28;20060;-56
2023/11/14 12:05:29;;;;;;;1.27;0.50;;;;;;;;;;5074834;28;20478;-55
2023/11/14 12:07:57;;;;;;;1.77;0.80;;;;;;;;;;5074214;28;20017;-55
2023/11/14 12:10:24;;;;;;;3.70;0.43;;;;;;;;;;5070012;28;20395;-55
2023/11/14 12:12:52;;;;;;;2.50;0.67;;;;;;;;;;5069932;28;20035;-56
2023/11/14 12:15:20;;;;;;;1.03;0.60;;;;;;;;;;5069711;28;20041;-55
2023/11/14 12:17:54;;;;;;;8.77;1.10;;;;;;;;;;5069559;28;20202;-55
2023/11/14 12:20:21;;;;;;;1.77;0.80;;;;;;;;;;5074434;28;20379;-56
2023/11/14 12:22:49;;;;;;;0.93;0.50;;;;;;;;;;5074725;28;20039;-55
2023/11/14 12:25:18;;;;;;;0.87;0.60;;;;;;;;;;5074125;28;20539;-55
2023/11/14 12:27:55;;;;;;;1.13;0.70;;;;;;;;;;5074061;28;20036;-55
2023/11/14 12:30:23;;;;;;;0.60;0.40;;;;;;;;;;5073431;28;20046;-55
2023/11/14 12:33:09;;;;;;;2.17;0.50;;;;;;;;;;5069584;28;20059;-55
2023/11/14 12:36:00;;;;;;;2.63;0.70;;;;;;;;;;5069519;28;20028;-55
2023/11/14 12:38:30;;;;;;;0.20;0.20;;;;;;;;;;5069460;28;20067;-55
2023/11/14 12:41:16;;;;;;;0.10;0.10;;;;;;;;;;5071150;28;20495;-55
2023/11/14 12:43:43;;;;;;;1.20;0.70;;;;;;;;;;5073793;28;20040;-56
2023/11/14 12:46:10;;;;;;;0.93;0.67;;;;;;;;;;5074448;28;20083;-55
2023/11/14 12:48:37;;;;;;;0.53;0.30;;;;;;;;;;5074449;28;20486;-55
2023/11/14 12:51:04;;;;;;;0.87;0.37;;;;;;;;;;5074363;28;20021;-56
2023/11/14 12:53:33;;;;;;;2.63;0.63;;;;;;;;;;5071769;28;20029;-56
2023/11/14 12:56:00;;;;;;;0.33;0.33;;;;;;;;;;5068856;28;20471;-55
2023/11/14 12:58:27;;;;;;;0.20;0.20;;;;;;;;;;5068954;28;20025;-55
2023/11/14 13:00:54;;;;;;;0.90;0.40;;;;;;;;;;5068927;28;20036;-55
2023/11/14 13:03:21;;;;;;;1.07;0.63;;;;;;;;;;5070781;28;20033;-55
2023/11/14 13:05:49;;;;;;;0.50;0.40;;;;;;;;;;5073762;28;20024;-55
2023/11/14 13:08:16;;;;;;;9.50;1.17;;;;;;;;;;5066989;28;20028;-55
2023/11/14 13:10:42;;;;;;;0.80;0.60;;;;;;;;;;5073620;28;20032;-55
2023/11/14 13:13:11;;;;;;;0.70;0.53;;;;;;;;;;5073928;28;20043;-55
2023/11/14 13:15:37;;;;;;;0.73;0.40;;;;;;;;;;5071318;28;20078;-55
2023/11/14 13:18:04;;;;;;;0.93;0.40;;;;;;;;;;5068594;28;20036;-55
2023/11/14 13:20:31;;;;;;;0.50;0.50;;;;;;;;;;5068376;28;20028;-55
2023/11/14 13:22:58;;;;;;;1.87;0.83;;;;;;;;;;5068353;28;20032;-57
2023/11/14 13:25:25;;;;;;;10.50;0.50;;;;;;;;;;5069581;28;20028;-57
2023/11/14 13:27:51;;;;;;;0.50;0.20;;;;;;;;;;5073672;28;20020;-57
2023/11/14 13:30:18;;;;;;;1.20;0.50;;;;;;;;;;5073171;28;20023;-57
2023/11/14 13:32:45;;;;;;;0.67;0.50;;;;;;;;;;5073292;28;20020;-57
2023/11/14 13:35:13;;;;;;;1.37;0.83;;;;;;;;;;5072695;28;20353;-57
2023/11/14 13:37:41;;;;;;;1.90;0.53;;;;;;;;;;5071322;28;20032;-58
2023/11/14 13:40:10;;;;;;;0.77;0.60;;;;;;;;;;5068069;28;20399;-57
2023/11/14 13:42:39;;;;;;;2.37;0.60;;;;;;;;;;5067995;28;20044;-57
2023/11/14 13:45:06;;;;;;;1.20;0.90;;;;;;;;;;5067996;28;20036;-57
2023/11/14 13:47:33;;;;;;;1.23;0.60;;;;;;;;;;5068876;28;20020;-58
2023/11/14 13:50:00;;;;;;;1.83;0.77;;;;;;;;;;5072808;28;20029;-58
2023/11/14 13:52:27;;;;;;;1.43;0.40;;;;;;;;;;5073367;28;20028;-57
2023/11/14 13:54:55;;;;;;;0.20;0.20;;;;;;;;;;5073257;28;20107;-57
2023/11/14 13:57:23;;;;;;;3.50;0.87;;;;;;;;;;5072529;28;20036;-57
2023/11/14 13:59:50;;;;;;;2.03;0.37;;;;;;;;;;5071541;28;20028;-58
2023/11/14 14:02:18;;;;;;;1.00;0.63;;;;;;;;;;5067693;28;20391;-58
2023/11/14 14:04:44;;;;;;;1.50;0.73;;;;;;;;;;5067392;28;20035;-58
2023/11/14 14:07:11;;;;;;;0.40;0.33;;;;;;;;;;5067547;28;20498;-57
2023/11/14 14:09:38;;;;;;;0.13;0.13;;;;;;;;;;5068111;28;20020;-58
2023/11/14 14:12:06;;;;;;;0.83;0.53;;;;;;;;;;5072610;28;20031;-58
2023/11/14 14:14:32;;;;;;;0.37;0.27;;;;;;;;;;5072728;28;20040;-57
2023/11/14 14:17:00;;;;;;;0.50;0.40;;;;;;;;;;5072679;28;20059;-58
2023/11/14 14:19:28;;;;;;;0.97;0.53;;;;;;;;;;5072326;28;20028;-58
2023/11/14 14:21:55;;;;;;;0.60;0.33;;;;;;;;;;5071782;28;20108;-58
2023/11/14 14:24:23;;;;;;;0.30;0.30;;;;;;;;;;5067427;28;20020;-58
2023/11/14 14:26:50;;;;;;;0.20;0.20;;;;;;;;;;5067187;28;20110;-58
2023/11/14 14:29:17;;;;;;;0.30;0.23;;;;;;;;;;5067143;28;20689;-59
2023/11/14 14:31:44;;;;;;;0.53;0.40;;;;;;;;;;5067203;28;20036;-58
2023/11/14 14:34:11;;;;;;;0.80;0.43;;;;;;;;;;5072338;28;20050;-58
2023/11/14 14:36:41;;;;;;;2.43;0.40;;;;;;;;;;5071786;28;20049;-58
2023/11/14 14:39:08;;;;;;;0.10;0.10;;;;;;;;;;5072334;28;20032;-58
2023/11/14 14:41:40;;;;;;;1.27;0.67;;;;;;;;;;5071547;28;20028;-59
2023/11/14 14:44:07;;;;;;;1.97;0.70;;;;;;;;;;5072238;28;20029;-58
2023/11/14 14:46:34;;;;;;;1.67;0.80;;;;;;;;;;5066930;28;20033;-58
2023/11/14 14:49:00;;;;;;;0.40;0.40;;;;;;;;;;5066964;28;20082;-58